Погода Гречишноена неделю

Смоленская область, Россия

23 - 29 мая
  • 23мая
    Сегодня
    +7°
    +22°
    Ясно и безоблачно
    ВремяПогодаТемператураВлажностьДавлениеВетер, м/сВероятность осадков
    00:00Ясно и безоблачно+12°C61 %748 мм3.1 м/с2 %
    03:00Ясно и безоблачно+10°C56 %749 мм4.4 м/с2 %
    06:00Ясно и безоблачно+10°C61 %750 мм4.6 м/с2 %
    09:00Ясно и безоблачно+16°C52 %751 мм4.9 м/с2 %
    12:00Ясно и безоблачно+20°C38 %752 мм5.7 м/с2 %
    15:00Ясно и безоблачно+21°C36 %752 мм5.5 м/с2 %
    18:00Ясно и безоблачно+21°C39 %752 мм5.3 м/с2 %
    21:00Ясно и безоблачно+15°C47 %753 мм3.8 м/с2 %
  • 24мая
    Пятница
    +6°
    +20°
    Ясно и безоблачно
    ВремяПогодаТемператураВлажностьДавлениеВетер, м/сВероятность осадков
    00:00Ясно и безоблачно+10°C61 %754 мм3.0 м/с2 %
    03:00Ясно и безоблачно+8°C60 %754 мм2.9 м/с2 %
    06:00Ясно и безоблачно+8°C60 %755 мм2.9 м/с2 %
    09:00Практически безоблачно+14°C42 %756 мм3.9 м/с2 %
    12:00Ясно и безоблачно+18°C34 %756 мм4.8 м/с2 %
    15:00Ясно и безоблачно+19°C32 %756 мм4.7 м/с2 %
    18:00Ясно и безоблачно+19°C34 %755 мм4.0 м/с2 %
    21:00Ясно и безоблачно+13°C53 %755 мм2.3 м/с2 %
  • 25мая
    Суббота
    +7°
    +23°
    Небольшая облачность
    ВремяПогодаТемператураВлажностьДавлениеВетер, м/сВероятность осадков
    00:00Ясно и безоблачно+9°C66 %755 мм2.4 м/с2 %
    03:00Ясно и безоблачно+7°C75 %755 мм2.3 м/с2 %
    06:00Ясно и безоблачно+8°C73 %754 мм2.2 м/с2 %
    09:00Ясно и безоблачно+16°C53 %755 мм1.7 м/с2 %
    12:00Ясно и безоблачно+21°C35 %754 мм2.2 м/с2 %
    15:00Небольшая облачность+22°C33 %753 мм2.6 м/с2 %
    18:00Ясно и безоблачно+23°C36 %752 мм2.3 м/с2 %
    21:00Ясно и безоблачно+15°C64 %751 мм2.9 м/с2 %
  • 26мая
    Воскресенье
    +12°
    +25°
    Практически безоблачно
    ВремяПогодаТемператураВлажностьДавлениеВетер, м/сВероятность осадков
    00:00Практически безоблачно+10°C73 %751 мм2.3 м/с2 %
    03:00Ясно и безоблачно+8°C78 %751 мм2.2 м/с2 %
    06:00Ясно и безоблачно+10°C77 %751 мм2.2 м/с2 %
    09:00Практически безоблачно+18°C55 %751 мм1.7 м/с2 %
    12:00Ясно и безоблачно+23°C38 %751 мм2.2 м/с2 %
    15:00Практически безоблачно+24°C35 %750 мм2.3 м/с2 %
    18:00Практически безоблачно+25°C37 %749 мм2.6 м/с4 %
    21:00Практически безоблачно+20°C54 %750 мм4.0 м/с4 %
  • 27мая
    Понедельник
    +10°
    +24°
    Ясно и безоблачно
    ВремяПогодаТемператураВлажностьДавлениеВетер, м/сВероятность осадков
    00:00Ясно и безоблачно+14°C79 %750 мм2.5 м/с2 %
    03:00Ясно и безоблачно+13°C93 %751 мм2.7 м/с2 %
    06:00Практически безоблачно+14°C91 %752 мм3.8 м/с2 %
    09:00Практически безоблачно+19°C73 %752 мм4.2 м/с4 %
    12:00Ясно и безоблачно+23°C51 %753 мм4.6 м/с23 %
    15:00Ясно и безоблачно+23°C40 %752 мм3.9 м/с30 %
    18:00Небольшая облачность+23°C41 %752 мм4.3 м/с30 %
    21:00Ясно и безоблачно+18°C50 %752 мм2.9 м/с10 %
Мы используем cookies
Соглашаюсь